LBWN Airport Information

Runway Information
Runway 09 Length 8202 ft width 180 ft
Elevation 203 ft Threshold 0 ft Heading 97
Runway 27 Length 8202 ft Width 180 ft
Elevation 217 ft Threshold 0 ft Heading 277
Airport Frequencies
Type APP Name APP Frequency 121 MHZ
Type ATIS Name ATIS Frequency 118.075 MHZ
Type TWR Name TWR Frequency 119.5 MHZ
Airport Navaids
Type NDB Name Devnya Frequency 350 KHZ
Type NDB Name Varna Frequency 375 KHZ
Type NDB Name Varna Frequency 335 KHZ
Type NDB Name Varna Frequency 397 KHZ
Type NDB Name Varna Frequency 526 KHZ
Type VOR-DME Name Varna Frequency 112400 KHZ
Airport Weather Information & NOTAM
ADDS - METARS form results

(0410 UTC 15 November 2018)
Data provider http://aviationweather.gov/metar/data/
 
METAR text: LBWN 150400Z 33006KT 9999 -RA SCT042 06/04 Q1021 NOSIG
Conditions at: LBWN (VARNA , BG) observed 0400 UTC 15 November 2018
Temperature: 6.0°C (43°F)
Dewpoint: 4.0°C (39°F) [RH = 87%]
Pressure (altimeter): 30.15 inches Hg (1021.0 mb)
Winds: from the NNW (330 degrees) at 7 MPH (6 knots; 3.1 m/s)
Visibility: 6 or more miles (10+ km)
Ceiling: at least 12,000 feet AGL
Clouds: scattered clouds at 4200 feet AGL
Weather: -RA  (light rain)

METAR text: LBWN 150330Z 34007KT 9999 -RA SCT042 07/04 Q1021 RERA NOSIG
Conditions at: LBWN (VARNA , BG) observed 0330 UTC 15 November 2018
Temperature: 7.0°C (45°F)
Dewpoint: 4.0°C (39°F) [RH = 81%]
Pressure (altimeter): 30.15 inches Hg (1021.0 mb)
Winds: from the NNW (340 degrees) at 8 MPH (7 knots; 3.6 m/s)
Visibility: 6 or more miles (10+ km)
Ceiling: at least 12,000 feet AGL
Clouds: scattered clouds at 4200 feet AGL
Weather: -RA  (light rain)

Forecast for: LBWN (VARNA , BG)
Text: TAF LBWN 142300Z 1500/1524 35012KT 9999 SCT020 BKN030
Forecast period: 0000 UTC 15 November 2018 to 0000 UTC 16 November 2018
Forecast type: FROM: standard forecast or significant change
Winds: from the N (350 degrees) at 14 MPH (12 knots; 6.2 m/s)
Visibility: 6 or more miles 10+ km)
Ceiling: 3000 feet AGL
Clouds: scattered clouds at 2000 feet AGL
broken clouds at 3000 feet AGL
Weather: no significant weather forecast for this period
Text: TEMPO 1500/1507 5000 RA BKN015 OVC025
Forecast period: 0000 to 0700 UTC 15 November 2018
Forecast type: TEMPORARY: The following changes expected for less than half the time period
Visibility: 3 miles (5 km)
Ceiling: 1500 feet AGL
Clouds: broken clouds at 1500 feet AGL
overcast cloud deck at 2500 feet AGL
Weather: RA  (moderate rain)